createdAt,value
2017-03-14T00:00:10.862Z,98.49
2017-03-14T00:00:25.438Z,98.49
2017-03-14T00:00:39.987Z,98.68
2017-03-14T00:01:25.618Z,98.68
2017-03-14T00:01:40.173Z,98.87
2017-03-14T00:01:54.757Z,98.77
2017-03-14T00:02:40.249Z,98.68
2017-03-14T00:03:25.771Z,99.07
2017-03-14T00:03:40.363Z,98.87
2017-03-14T00:04:26.304Z,98.87
2017-03-14T00:05:11.820Z,98.97
2017-03-14T00:05:26.392Z,99.16
2017-03-14T00:06:11.890Z,98.87
2017-03-14T00:06:26.488Z,98.58
2017-03-14T00:06:41.097Z,99.16
2017-03-14T00:06:55.713Z,98.87
2017-03-14T00:07:10.307Z,99.26
2017-03-14T00:07:24.922Z,99.07
2017-03-14T00:07:39.502Z,99.07
2017-03-14T00:08:40.587Z,98.92
2017-03-14T00:08:55.162Z,98.77
2017-03-14T00:09:09.765Z,98.97
2017-03-14T00:09:24.356Z,99.16
2017-03-14T00:09:38.955Z,98.97
2017-03-14T00:10:50.358Z,98.97
2017-03-14T00:11:36.061Z,98.87
2017-03-14T00:13:07.083Z,98.68
2017-03-14T00:13:21.678Z,98.77
2017-03-14T00:13:36.278Z,98.77
2017-03-14T00:13:50.962Z,98.58
2017-03-14T00:14:05.539Z,98.77
2017-03-14T00:14:20.101Z,98.77
2017-03-14T00:14:46.873Z,98.49
2017-03-14T00:15:32.309Z,98.58
2017-03-14T00:15:46.947Z,98.87
2017-03-14T00:16:01.528Z,99.26
2017-03-14T00:16:16.101Z,98.77
2017-03-14T00:17:01.594Z,98.87
2017-03-14T00:18:36.436Z,99.07
2017-03-14T00:18:50.976Z,99.26
2017-03-14T00:19:36.476Z,99.74
2017-03-14T00:19:51.043Z,99.07
2017-03-14T00:20:05.643Z,99.16
2017-03-14T00:20:20.198Z,99.84
2017-03-14T00:21:25.148Z,99.74
2017-03-14T00:21:39.716Z,99.74
2017-03-14T00:21:54.227Z,99.07
2017-03-14T00:22:19.048Z,99.55
2017-03-14T00:22:33.677Z,99.84
2017-03-14T00:22:53.393Z,99.45
2017-03-14T00:23:39.100Z,99.3
2017-03-14T00:23:53.702Z,99.69
2017-03-14T00:24:08.339Z,99.74
2017-03-14T00:24:22.944Z,99.45
2017-03-14T00:24:37.573Z,99.35
2017-03-14T00:24:57.258Z,99.74
2017-03-14T00:25:42.969Z,98.87
2017-03-14T00:25:57.600Z,99.45
2017-03-14T00:26:12.222Z,99.64
2017-03-14T00:26:26.762Z,99.45
2017-03-14T00:26:41.372Z,98.97
2017-03-14T00:27:32.070Z,99.16
2017-03-14T00:27:46.730Z,99.16
2017-03-14T00:28:01.314Z,99.16
2017-03-14T00:28:15.930Z,99.26
2017-03-14T00:29:01.401Z,99.07
2017-03-14T00:29:15.988Z,99.07
2017-03-14T00:29:30.660Z,99.07
2017-03-14T00:30:16.169Z,98.77
2017-03-14T00:31:01.721Z,98.87
2017-03-14T00:31:16.300Z,99.26
2017-03-14T00:31:30.860Z,99.16
2017-03-14T00:31:48.530Z,99.26
2017-03-14T00:32:03.146Z,99.35
2017-03-14T00:32:48.782Z,99.16
2017-03-14T00:33:03.600Z,99.16
2017-03-14T00:33:18.286Z,98.87
2017-03-14T00:33:32.877Z,99.26
2017-03-14T00:34:18.385Z,99.07
2017-03-14T00:34:32.966Z,98.87
2017-03-14T00:34:47.540Z,99.16
2017-03-14T00:35:02.146Z,99.26
2017-03-14T00:35:53.348Z,99.16
2017-03-14T00:36:07.947Z,99.07
2017-03-14T00:36:22.583Z,98.77
2017-03-14T00:36:37.151Z,99.07
2017-03-14T00:36:51.701Z,99.16
2017-03-14T00:37:06.337Z,98.97
2017-03-14T00:37:51.828Z,99.35
2017-03-14T00:38:06.411Z,99.16
2017-03-14T00:39:12.873Z,99.35
2017-03-14T00:39:27.385Z,98.97
2017-03-14T00:39:42.032Z,99.07
2017-03-14T00:40:03.174Z,98.87
2017-03-14T00:40:17.774Z,98.68
2017-03-14T00:40:32.387Z,99.07
2017-03-14T00:40:46.936Z,98.97
2017-03-14T00:41:01.600Z,99.07
2017-03-14T00:41:16.213Z,98.97
2017-03-14T00:41:30.797Z,98.77
2017-03-14T00:41:45.392Z,98.87
2017-03-14T00:42:50.558Z,98.97
2017-03-14T00:43:05.349Z,98.97
2017-03-14T00:43:19.933Z,98.87
2017-03-14T00:43:34.503Z,99.16
2017-03-14T00:43:49.140Z,98.77
2017-03-14T00:44:34.699Z,98.97
2017-03-14T00:44:49.344Z,99.16
2017-03-14T00:45:03.984Z,99.26
2017-03-14T00:45:18.594Z,98.68
2017-03-14T00:45:33.207Z,98.58
2017-03-14T00:45:47.793Z,98.68
2017-03-14T00:46:02.358Z,99.07
2017-03-14T00:46:22.852Z,99.26
2017-03-14T00:46:37.480Z,98.97
2017-03-14T00:46:58.370Z,98.97
2017-03-14T00:47:12.988Z,99.07
2017-03-14T00:48:43.997Z,99.16
2017-03-14T00:48:58.570Z,99.16
2017-03-14T00:49:18.194Z,98.97
2017-03-14T00:49:33.059Z,99.26
2017-03-14T00:49:47.689Z,99.16
2017-03-14T00:50:02.276Z,98.97
2017-03-14T00:50:47.778Z,98.97
2017-03-14T00:51:02.369Z,98.97
2017-03-14T00:51:16.959Z,98.97
2017-03-14T00:52:03.066Z,99.55
2017-03-14T00:52:38.769Z,98.92
2017-03-14T00:52:53.353Z,99.79
2017-03-14T00:53:07.999Z,99.84
2017-03-14T00:53:22.526Z,99.64
2017-03-14T00:53:37.075Z,99.74
2017-03-14T00:53:51.706Z,99.69
2017-03-14T00:54:06.336Z,99.45
2017-03-14T00:54:20.944Z,99.55
2017-03-14T00:54:45.644Z,99.74
2017-03-14T00:55:00.182Z,99.55
2017-03-14T00:55:14.826Z,99.55
2017-03-14T00:55:29.361Z,99.55
2017-03-14T00:55:43.945Z,99.55
2017-03-14T00:55:58.573Z,99.84
2017-03-14T00:56:13.199Z,99.45
2017-03-14T00:56:27.788Z,98.87
2017-03-14T00:57:28.054Z,98.97
2017-03-14T00:57:42.659Z,99.79
2017-03-14T00:57:57.262Z,99.4
2017-03-14T00:58:13.327Z,99.59
2017-03-14T00:58:28.810Z,99.5
2017-03-14T00:58:43.659Z,99.45
2017-03-14T00:58:58.236Z,99.55
2017-03-14T00:59:12.835Z,99.59
2017-03-14T00:59:27.426Z,99.74
2017-03-14T01:00:12.924Z,99.55
2017-03-14T01:00:27.491Z,99.74
2017-03-14T01:00:42.080Z,99.74
2017-03-14T01:00:56.671Z,99.74
2017-03-14T01:01:11.276Z,99.45
2017-03-14T01:01:25.886Z,99.74
2017-03-14T01:01:40.449Z,99.55
2017-03-14T01:02:40.605Z,99.55
2017-03-14T01:02:55.224Z,99.55
2017-03-14T01:03:09.949Z,99.5
2017-03-14T01:03:24.488Z,99.02
2017-03-14T01:03:39.050Z,99.45
2017-03-14T01:03:53.604Z,99.69
2017-03-14T01:04:08.211Z,99.45
2017-03-14T01:04:22.817Z,99.26
2017-03-14T01:04:37.432Z,99.64
2017-03-14T01:06:39.571Z,99.3
2017-03-14T01:07:25.126Z,99.35
2017-03-14T01:07:58.895Z,99.64
2017-03-14T01:08:13.528Z,98.87
2017-03-14T01:08:28.136Z,98.87
2017-03-14T01:08:42.752Z,99.07
2017-03-14T01:09:10.142Z,99.84
2017-03-14T01:09:24.765Z,99.74
2017-03-14T01:09:39.421Z,99.55
2017-03-14T01:09:53.981Z,99.64
2017-03-14T01:10:08.550Z,99.64
2017-03-14T01:10:23.137Z,99.07
2017-03-14T01:10:37.784Z,98.87
2017-03-14T01:11:23.259Z,99.64
2017-03-14T01:12:08.737Z,99.84
2017-03-14T01:12:23.355Z,99.64
2017-03-14T01:12:37.924Z,99.16
2017-03-14T01:12:52.447Z,99.16
2017-03-14T01:13:07.364Z,98.97
2017-03-14T01:13:52.835Z,99.55
2017-03-14T01:14:41.592Z,99.74
2017-03-14T01:14:56.136Z,99.74
2017-03-14T01:15:10.729Z,98.97
2017-03-14T01:15:25.261Z,98.97
2017-03-14T01:15:39.852Z,98.97
2017-03-14T01:15:54.399Z,99.64
2017-03-14T01:16:08.968Z,99.84
2017-03-14T01:17:21.166Z,99.35
2017-03-14T01:17:35.716Z,99.55
2017-03-14T01:17:50.332Z,98.87
2017-03-14T01:18:35.819Z,99.07
2017-03-14T01:18:50.404Z,99.26
2017-03-14T01:20:07.210Z,99.07
2017-03-14T01:20:21.811Z,99.07
2017-03-14T01:20:36.443Z,99.16
2017-03-14T01:20:51.032Z,99.16
2017-03-14T01:21:05.604Z,98.97
2017-03-14T01:21:20.183Z,98.87
2017-03-14T01:21:34.774Z,99.16
2017-03-14T01:21:49.393Z,99.07
2017-03-14T01:22:03.990Z,98.97
2017-03-14T01:22:18.575Z,99.07
2017-03-14T01:22:33.334Z,98.87
2017-03-14T01:22:47.868Z,98.77
2017-03-14T01:23:02.463Z,98.97
2017-03-14T01:23:17.024Z,99.07
2017-03-14T01:24:02.544Z,99.16
2017-03-14T01:24:17.132Z,99.07
2017-03-14T01:25:02.595Z,99.07
2017-03-14T01:25:17.331Z,99.26
2017-03-14T01:26:53.129Z,99.84
2017-03-14T01:27:07.744Z,99.16
2017-03-14T01:27:22.504Z,99.74
2017-03-14T01:27:43.346Z,99.55
2017-03-14T01:27:58.779Z,99.55
2017-03-14T01:28:13.391Z,99.64
2017-03-14T01:28:27.985Z,99.45
2017-03-14T01:28:42.662Z,99.64
2017-03-14T01:28:57.285Z,99.35
2017-03-14T01:29:12.141Z,99.45
2017-03-14T01:29:26.752Z,99.55
2017-03-14T01:29:41.306Z,99.64
2017-03-14T01:29:56.145Z,99.26
2017-03-14T01:30:10.756Z,99.55
2017-03-14T01:30:25.320Z,99.5
2017-03-14T01:30:39.908Z,99.74
2017-03-14T01:30:54.527Z,99.64
2017-03-14T01:31:09.114Z,99.26
2017-03-14T01:31:23.713Z,99.74
2017-03-14T01:31:49.446Z,99.64
2017-03-14T01:32:04.507Z,99.64
2017-03-14T01:32:21.223Z,99.55
2017-03-14T01:32:36.278Z,99.64
2017-03-14T01:32:50.892Z,99.35
2017-03-14T01:33:05.559Z,99.26
2017-03-14T01:33:20.116Z,99.64
2017-03-14T01:33:35.020Z,99.26
2017-03-14T01:33:50.082Z,99.16
2017-03-14T01:34:04.774Z,99.64
2017-03-14T01:34:19.315Z,99.64
2017-03-14T01:34:33.909Z,99.55
2017-03-14T01:34:48.520Z,99.26
2017-03-14T01:35:03.118Z,99.74
2017-03-14T01:35:25.888Z,99.64
2017-03-14T01:35:40.532Z,99.45
2017-03-14T01:35:55.108Z,99.64
2017-03-14T01:36:55.276Z,98.97
2017-03-14T01:37:09.806Z,99.16
2017-03-14T01:37:24.400Z,99.16
2017-03-14T01:37:38.990Z,99.07
2017-03-14T01:37:53.559Z,98.87
2017-03-14T01:38:08.137Z,98.97
2017-03-14T01:38:22.710Z,99.26
2017-03-14T01:38:37.320Z,98.97
2017-03-14T01:38:52.538Z,98.97
2017-03-14T01:39:07.054Z,99.26
2017-03-14T01:39:24.720Z,98.97
2017-03-14T01:39:54.179Z,98.97
2017-03-14T01:40:41.424Z,99.16
2017-03-14T01:41:16.747Z,99.16
2017-03-14T01:41:31.357Z,99.16
2017-03-14T01:42:31.514Z,99.84
2017-03-14T01:42:46.126Z,99.16
2017-03-14T01:43:00.781Z,99.84
2017-03-14T01:43:15.349Z,99.74
2017-03-14T01:43:29.946Z,99.45
2017-03-14T01:44:15.621Z,99.35
2017-03-14T01:44:30.185Z,99.45
2017-03-14T01:44:44.871Z,98.87
2017-03-14T01:45:30.378Z,99.74
2017-03-14T01:45:45.034Z,99.45
2017-03-14T01:45:59.644Z,99.35
2017-03-14T01:46:14.303Z,99.64
2017-03-14T01:46:28.869Z,99.4
2017-03-14T01:47:14.346Z,99.26
2017-03-14T01:47:28.960Z,99.35
2017-03-14T01:47:43.532Z,98.97
2017-03-14T01:47:58.172Z,99.16
2017-03-14T01:48:12.787Z,99.64
2017-03-14T01:48:27.366Z,99.55
2017-03-14T01:48:41.929Z,99.74
2017-03-14T01:48:56.596Z,99.74
2017-03-14T01:49:11.191Z,99.35
2017-03-14T01:49:25.744Z,99.74
2017-03-14T01:49:40.392Z,99.64
2017-03-14T01:49:54.979Z,99.07
2017-03-14T01:50:09.625Z,98.97
2017-03-14T01:50:24.211Z,98.97
2017-03-14T01:50:39.317Z,98.87
2017-03-14T01:50:53.901Z,98.97
2017-03-14T01:51:08.518Z,99.07
2017-03-14T01:51:23.129Z,98.97
2017-03-14T01:51:49.101Z,98.97
2017-03-14T01:52:03.692Z,99.16
2017-03-14T01:52:18.286Z,99.35
2017-03-14T01:52:33.660Z,99.74
2017-03-14T01:52:48.262Z,99.84
2017-03-14T01:53:02.864Z,99.64
2017-03-14T01:53:17.466Z,99.55
2017-03-14T01:53:32.110Z,98.97
2017-03-14T01:53:46.706Z,99.64
2017-03-14T01:54:01.301Z,99.26
2017-03-14T01:54:16.598Z,99.45
2017-03-14T01:54:31.226Z,99.64
2017-03-14T01:54:46.580Z,99.74
2017-03-14T01:55:01.208Z,99.84
2017-03-14T01:55:15.832Z,99.45
2017-03-14T01:55:30.437Z,99.74
2017-03-14T01:55:45.052Z,99.64
2017-03-14T01:55:59.584Z,98.87
2017-03-14T01:56:14.137Z,99.45
2017-03-14T01:56:28.783Z,99.74
2017-03-14T01:56:43.333Z,99.55
2017-03-14T01:56:57.931Z,99.35
2017-03-14T01:57:12.558Z,99.55
2017-03-14T01:57:27.129Z,99.26
2017-03-14T01:57:41.687Z,99.26
2017-03-14T01:57:56.284Z,99.26
2017-03-14T01:58:11.836Z,99.35
2017-03-14T01:58:26.396Z,99.26
2017-03-14T01:58:41.057Z,99.16
2017-03-14T01:58:56.111Z,99.26
2017-03-14T01:59:10.639Z,99.26
2017-03-14T01:59:26.064Z,99.26
2017-03-14T01:59:40.713Z,98.87
2017-03-14T01:59:55.552Z,99.26
2017-03-14T02:00:10.413Z,99.35
2017-03-14T02:00:24.995Z,99.55
2017-03-14T02:00:39.580Z,98.97
2017-03-14T02:00:54.201Z,99.55
2017-03-14T02:01:10.001Z,99.45
2017-03-14T02:01:24.611Z,99.55
2017-03-14T02:01:39.193Z,99.55
2017-03-14T02:01:53.772Z,99.26
2017-03-14T02:02:08.343Z,99.26
2017-03-14T02:02:22.949Z,99.07
2017-03-14T02:02:37.479Z,99.16
2017-03-14T02:02:51.995Z,99.55
2017-03-14T02:03:06.597Z,99.74
2017-03-14T02:03:21.157Z,99.74
2017-03-14T02:03:35.709Z,99.64
2017-03-14T02:03:50.350Z,98.87
2017-03-14T02:04:04.834Z,99.16
2017-03-14T02:04:19.381Z,99.26
2017-03-14T02:04:34.021Z,99.16
2017-03-14T02:04:48.553Z,98.97
2017-03-14T02:05:03.820Z,99.16
2017-03-14T02:05:20.166Z,98.87
2017-03-14T02:05:34.718Z,99.16
2017-03-14T02:05:49.937Z,99.16
2017-03-14T02:06:04.548Z,99.16
2017-03-14T02:06:19.149Z,99.07
2017-03-14T02:06:33.724Z,98.97
2017-03-14T02:06:48.258Z,98.77
2017-03-14T02:07:02.783Z,99.35
2017-03-14T02:07:17.364Z,99.16
2017-03-14T02:07:31.914Z,98.87
2017-03-14T02:07:46.482Z,99.26
2017-03-14T02:08:01.059Z,98.97
2017-03-14T02:08:15.654Z,98.87
2017-03-14T02:08:30.215Z,99.64
2017-03-14T02:08:44.812Z,99.07
2017-03-14T02:08:59.435Z,99.84
2017-03-14T02:09:14.005Z,98.97
2017-03-14T02:09:28.505Z,99.84
2017-03-14T02:09:43.097Z,99.74
2017-03-14T02:09:57.715Z,99.35
2017-03-14T02:10:17.310Z,99.45
2017-03-14T02:10:31.949Z,98.77
2017-03-14T02:11:12.690Z,99.55
2017-03-14T02:11:30.072Z,99.45
2017-03-14T02:11:44.633Z,99.45
2017-03-14T02:11:59.176Z,99.45
2017-03-14T02:12:13.803Z,99.55
2017-03-14T02:12:28.366Z,99.45
2017-03-14T02:12:42.945Z,99.35
2017-03-14T02:12:57.496Z,99.26
2017-03-14T02:13:12.073Z,99.07
2017-03-14T02:13:27.176Z,99.45
2017-03-14T02:13:41.747Z,99.45
2017-03-14T02:13:56.335Z,99.74
2017-03-14T02:14:10.903Z,99.26
2017-03-14T02:14:25.651Z,99.45
2017-03-14T02:14:40.207Z,99.45
2017-03-14T02:14:54.706Z,99.74
2017-03-14T02:15:09.270Z,99.55
2017-03-14T02:15:23.800Z,99.74
2017-03-14T02:15:38.436Z,99.26
2017-03-14T02:15:54.476Z,99.55
2017-03-14T02:16:09.135Z,99.55
2017-03-14T02:16:23.746Z,99.74
2017-03-14T02:16:38.351Z,99.35
2017-03-14T02:16:53.974Z,99.26
2017-03-14T02:17:08.818Z,99.64
2017-03-14T02:17:23.453Z,99.45
2017-03-14T02:17:38.053Z,99.26
2017-03-14T02:17:52.673Z,99.35
2017-03-14T02:18:07.264Z,99.55
2017-03-14T02:18:21.831Z,99.26
2017-03-14T02:18:36.441Z,99.26
2017-03-14T02:18:51.021Z,99.45
2017-03-14T02:19:05.629Z,99.35
2017-03-14T02:19:20.441Z,98.87
2017-03-14T02:19:35.222Z,99.55
2017-03-14T02:19:49.800Z,99.35
2017-03-14T02:20:04.586Z,99.26
2017-03-14T02:20:19.105Z,99.26
2017-03-14T02:20:33.606Z,99.07
2017-03-14T02:20:48.172Z,98.97
2017-03-14T02:21:02.722Z,99.55
2017-03-14T02:21:17.308Z,99.35
2017-03-14T02:21:31.917Z,99.26
2017-03-14T02:21:46.534Z,99.16
2017-03-14T02:22:01.397Z,99.35
2017-03-14T02:22:15.970Z,99.35
2017-03-14T02:22:30.495Z,99.55
2017-03-14T02:22:45.088Z,99.26
2017-03-14T02:23:00.084Z,99.64
2017-03-14T02:23:15.031Z,99.55
2017-03-14T02:23:29.598Z,99.35
2017-03-14T02:23:44.628Z,99.21
2017-03-14T02:23:59.199Z,99.64
2017-03-14T02:24:13.733Z,99.21
2017-03-14T02:24:28.305Z,99.74
2017-03-14T02:24:42.902Z,99.5
2017-03-14T02:24:57.540Z,99.35
2017-03-14T02:25:12.778Z,99.64
2017-03-14T02:25:27.375Z,99.5
2017-03-14T02:25:41.906Z,99.64
2017-03-14T02:25:56.482Z,99.84
2017-03-14T02:26:11.036Z,99.59
2017-03-14T02:26:25.602Z,99.55
2017-03-14T02:26:40.232Z,99.55
2017-03-14T02:26:54.852Z,99.55
2017-03-14T02:27:09.486Z,99.26
2017-03-14T02:27:24.089Z,99.4
2017-03-14T02:27:38.602Z,99.45
2017-03-14T02:27:53.204Z,99.45
2017-03-14T02:28:08.031Z,99.74
2017-03-14T02:28:22.630Z,99.26
2017-03-14T02:28:37.226Z,99.55
2017-03-14T02:28:51.830Z,99.55
2017-03-14T02:29:06.386Z,99.55
2017-03-14T02:29:21.043Z,99.64
2017-03-14T02:29:35.908Z,99.26
2017-03-14T02:29:50.525Z,99.45
2017-03-14T02:30:05.081Z,99.55
2017-03-14T02:30:19.686Z,99.64
2017-03-14T02:30:34.246Z,99.35
2017-03-14T02:30:48.772Z,99.35
2017-03-14T02:31:03.392Z,99.45
2017-03-14T02:31:17.959Z,99.35
2017-03-14T02:31:32.544Z,99.16
2017-03-14T02:31:47.170Z,99.35
2017-03-14T02:32:01.985Z,99.26
2017-03-14T02:32:16.581Z,99.45
2017-03-14T02:32:31.150Z,99.64
2017-03-14T02:32:45.715Z,99.26
2017-03-14T02:33:00.514Z,98.87
2017-03-14T02:33:15.358Z,98.87
2017-03-14T02:33:29.898Z,99.26
2017-03-14T02:33:44.529Z,99.35
2017-03-14T02:33:59.121Z,99.45
2017-03-14T02:34:13.707Z,99.35
2017-03-14T02:34:28.228Z,99.45
2017-03-14T02:34:42.867Z,99.26
2017-03-14T02:34:57.399Z,99.35
2017-03-14T02:35:12.021Z,99.35
2017-03-14T02:35:26.613Z,99.45
2017-03-14T02:35:41.204Z,99.55
2017-03-14T02:35:55.798Z,99.26
2017-03-14T02:36:10.366Z,99.45
2017-03-14T02:36:25.135Z,99.45
2017-03-14T02:36:39.745Z,99.55
2017-03-14T02:36:54.297Z,99.26
2017-03-14T02:37:08.862Z,99.45
2017-03-14T02:37:23.339Z,99.3
2017-03-14T02:37:37.933Z,99.64
2017-03-14T02:37:52.524Z,99.55
2017-03-14T02:38:07.102Z,99.45
2017-03-14T02:38:21.655Z,99.55
2017-03-14T02:38:36.218Z,99.16
2017-03-14T02:38:50.771Z,99.16
2017-03-14T02:39:05.334Z,98.87
2017-03-14T02:39:19.897Z,99.16
2017-03-14T02:39:34.457Z,99.26
2017-03-14T02:39:49.073Z,99.26
2017-03-14T02:40:03.631Z,99.35
2017-03-14T02:40:18.165Z,98.87
2017-03-14T02:40:32.717Z,99.26
2017-03-14T02:40:47.244Z,99.35
2017-03-14T02:41:01.798Z,99.35
2017-03-14T02:41:16.413Z,99.64
2017-03-14T02:41:31.058Z,99.45
2017-03-14T02:41:45.589Z,99.64
2017-03-14T02:42:00.136Z,99.64
2017-03-14T02:42:14.735Z,99.74
2017-03-14T02:42:29.291Z,99.26
2017-03-14T02:42:43.836Z,99.26
2017-03-14T02:42:58.367Z,99.45
2017-03-14T02:43:12.914Z,99.55
2017-03-14T02:43:27.586Z,99.26
2017-03-14T02:43:42.144Z,99.55
2017-03-14T02:43:56.727Z,99.55
2017-03-14T02:44:11.259Z,99.26
2017-03-14T02:44:25.869Z,99.3
2017-03-14T02:44:40.631Z,99.45
2017-03-14T02:44:55.217Z,99.64
2017-03-14T02:45:09.820Z,99.26
2017-03-14T02:45:24.371Z,99.3
2017-03-14T02:45:39.013Z,99.4
2017-03-14T02:45:53.554Z,99.3
2017-03-14T02:46:08.372Z,99.55
2017-03-14T02:46:22.980Z,99.45
2017-03-14T02:46:37.523Z,99.4
2017-03-14T02:46:52.148Z,99.64
2017-03-14T02:47:06.712Z,99.26
2017-03-14T02:47:21.632Z,99.35
2017-03-14T02:47:36.542Z,99.55
2017-03-14T02:47:51.094Z,99.55
2017-03-14T02:48:05.721Z,99.16
2017-03-14T02:48:20.308Z,99.55
2017-03-14T02:48:34.893Z,99.45
2017-03-14T02:48:49.468Z,99.26
2017-03-14T02:49:04.047Z,99.45
2017-03-14T02:49:18.618Z,99.26
2017-03-14T02:49:33.164Z,99.5
2017-03-14T02:49:47.767Z,99.26
2017-03-14T02:50:02.381Z,99.45
2017-03-14T02:50:16.952Z,99.55
2017-03-14T02:50:31.540Z,99.35
2017-03-14T02:50:46.087Z,99.64
2017-03-14T02:51:00.656Z,99.45
2017-03-14T02:51:15.192Z,99.74
2017-03-14T02:51:29.826Z,99.64
2017-03-14T02:51:44.388Z,99.64
2017-03-14T02:51:58.976Z,99.35
2017-03-14T02:52:13.584Z,99.3
2017-03-14T02:52:28.183Z,99.26
2017-03-14T02:52:42.757Z,99.45
2017-03-14T02:52:57.489Z,99.26
2017-03-14T02:53:12.018Z,99.35
2017-03-14T02:53:26.650Z,99.02
2017-03-14T02:53:41.301Z,99.5
2017-03-14T02:53:55.893Z,99.4
2017-03-14T02:54:10.410Z,99.5
2017-03-14T02:54:24.974Z,99.4
2017-03-14T02:54:39.873Z,99.4
2017-03-14T02:54:54.401Z,99.26
2017-03-14T02:55:09.027Z,99.4
2017-03-14T02:55:23.593Z,99.11
2017-03-14T02:55:38.157Z,99.3
2017-03-14T02:55:52.729Z,99.3
2017-03-14T02:56:07.270Z,99.5
2017-03-14T02:56:21.814Z,99.4
2017-03-14T02:56:36.375Z,99.4
2017-03-14T02:56:50.957Z,99.45
2017-03-14T02:57:05.497Z,99.4
2017-03-14T02:57:20.359Z,99.64
2017-03-14T02:57:34.900Z,99.4
2017-03-14T02:57:49.500Z,99.79
2017-03-14T02:58:04.097Z,99.4
2017-03-14T02:58:18.958Z,99.21
2017-03-14T02:58:34.345Z,99.69
2017-03-14T02:58:48.957Z,99.59
2017-03-14T02:59:03.555Z,99.21
2017-03-14T02:59:18.104Z,99.4
2017-03-14T02:59:32.676Z,99.69
2017-03-14T02:59:47.657Z,99.5
2017-03-14T03:00:02.191Z,99.69
2017-03-14T03:00:16.727Z,99.88
2017-03-14T03:00:31.298Z,99.69
2017-03-14T03:00:45.904Z,99.88
2017-03-14T03:01:00.546Z,99.69
2017-03-14T03:01:15.149Z,99.69
2017-03-14T03:01:29.730Z,99.69
2017-03-14T03:01:44.334Z,99.69
2017-03-14T03:01:59.004Z,99.59
2017-03-14T03:02:13.632Z,99.69
2017-03-14T03:02:28.219Z,99.5
2017-03-14T03:02:42.789Z,99.69
2017-03-14T03:02:57.337Z,99.4
2017-03-14T03:03:11.853Z,99.4
2017-03-14T03:03:26.392Z,99.4
2017-03-14T03:03:41.001Z,99.5
2017-03-14T03:03:55.617Z,99.59
2017-03-14T03:04:10.230Z,99.59
2017-03-14T03:04:24.806Z,99.59
2017-03-14T03:04:39.430Z,99.5
2017-03-14T03:04:54.075Z,99.59
2017-03-14T03:05:08.645Z,99.59
2017-03-14T03:05:23.214Z,99.59
2017-03-14T03:05:37.804Z,99.4
2017-03-14T03:05:52.456Z,99.4
2017-03-14T03:06:07.032Z,99.4
2017-03-14T03:06:21.588Z,99.59
2017-03-14T03:06:36.198Z,99.69
2017-03-14T03:06:50.744Z,99.69
2017-03-14T03:07:05.314Z,99.69
2017-03-14T03:07:19.865Z,99.59
2017-03-14T03:07:34.440Z,99.4
2017-03-14T03:07:49.057Z,99.4
2017-03-14T03:08:03.645Z,99.5
2017-03-14T03:08:18.212Z,99.4
2017-03-14T03:08:32.710Z,99.5
2017-03-14T03:08:47.366Z,99.59
2017-03-14T03:09:01.967Z,99.11
2017-03-14T03:09:16.525Z,99.59
2017-03-14T03:09:31.120Z,99.4
2017-03-14T03:09:45.688Z,99.5
2017-03-14T03:10:00.189Z,99.3
2017-03-14T03:10:14.732Z,99.5
2017-03-14T03:10:29.350Z,99.5
2017-03-14T03:10:43.890Z,99.4
2017-03-14T03:10:58.434Z,99.3
2017-03-14T03:11:12.965Z,99.5
2017-03-14T03:11:27.596Z,99.5
2017-03-14T03:11:42.220Z,99.4
2017-03-14T03:11:56.753Z,99.4
2017-03-14T03:12:11.331Z,99.4
2017-03-14T03:12:25.873Z,99.69
2017-03-14T03:12:40.482Z,99.5
2017-03-14T03:12:55.068Z,99.5
2017-03-14T03:13:09.651Z,99.59
2017-03-14T03:13:24.243Z,99.59
2017-03-14T03:13:38.841Z,99.4
2017-03-14T03:13:53.435Z,99.69
2017-03-14T03:14:07.999Z,99.5
2017-03-14T03:14:22.559Z,99.4
2017-03-14T03:14:37.114Z,99.59
2017-03-14T03:14:51.725Z,99.59
2017-03-14T03:15:06.472Z,99.59
2017-03-14T03:15:21.085Z,99.5
2017-03-14T03:15:35.666Z,99.69
2017-03-14T03:15:50.234Z,99.59
2017-03-14T03:16:04.809Z,99.59
2017-03-14T03:16:19.379Z,99.59
2017-03-14T03:16:34.035Z,99.4
2017-03-14T03:16:48.644Z,99.4
2017-03-14T03:17:03.163Z,99.59
2017-03-14T03:17:17.712Z,99.3
2017-03-14T03:17:32.219Z,99.4
2017-03-14T03:17:46.816Z,99.4
2017-03-14T03:18:01.395Z,99.59
2017-03-14T03:18:15.949Z,99.44
2017-03-14T03:18:30.525Z,99.26
2017-03-14T03:18:45.114Z,99.26
2017-03-14T03:18:59.703Z,99.3
2017-03-14T03:19:14.319Z,99.26
2017-03-14T03:19:28.911Z,99.35
2017-03-14T03:19:43.479Z,99.4
2017-03-14T03:19:58.056Z,99.69
2017-03-14T03:20:12.576Z,99.69
2017-03-14T03:20:27.154Z,99.44
2017-03-14T03:20:41.726Z,99.54
2017-03-14T03:20:56.282Z,99.64
2017-03-14T03:21:10.854Z,99.4
2017-03-14T03:21:25.478Z,99.64
2017-03-14T03:21:40.002Z,99.5
2017-03-14T03:21:54.597Z,99.35
2017-03-14T03:22:09.164Z,99.35
2017-03-14T03:22:23.793Z,99.59
2017-03-14T03:22:38.391Z,99.64
2017-03-14T03:22:53.187Z,99.44
2017-03-14T03:23:07.776Z,99.16
2017-03-14T03:23:22.309Z,99.35
2017-03-14T03:23:36.833Z,99.64
2017-03-14T03:23:51.309Z,99.54
2017-03-14T03:24:05.883Z,99.64
2017-03-14T03:24:20.448Z,99.26
2017-03-14T03:24:34.918Z,99.35
2017-03-14T03:24:49.431Z,99.35
2017-03-14T03:25:03.935Z,99.35
2017-03-14T03:25:19.440Z,99.16
2017-03-14T03:25:34.072Z,99.26
2017-03-14T03:25:48.683Z,99.35
2017-03-14T03:26:03.233Z,99.16
2017-03-14T03:26:17.776Z,99.06
2017-03-14T03:26:32.323Z,99.06
2017-03-14T03:26:46.914Z,99.26
2017-03-14T03:27:01.486Z,99.06
2017-03-14T03:27:16.021Z,98.58
2017-03-14T03:27:30.596Z,98.97
2017-03-14T03:27:45.164Z,98.68
2017-03-14T03:27:59.738Z,98.58
2017-03-14T03:28:14.241Z,98.49
2017-03-14T03:28:28.855Z,98.68
2017-03-14T03:28:43.460Z,98.29
2017-03-14T03:28:58.044Z,98.19
2017-03-14T03:29:12.599Z,98
2017-03-14T03:29:27.187Z,98.1
2017-03-14T03:29:41.792Z,97.72
2017-03-14T03:29:56.368Z,97.67
2017-03-14T03:30:11.367Z,97.19
2017-03-14T03:30:26.010Z,96.7
2017-03-14T03:30:40.630Z,96.32
2017-03-14T03:30:55.157Z,95.26
2017-03-14T03:31:09.751Z,95.07
2017-03-14T03:31:24.309Z,94.49
2017-03-14T03:31:38.849Z,94.4
2017-03-14T03:31:53.374Z,93.82
2017-03-14T03:32:07.921Z,93.33
2017-03-14T03:32:22.497Z,92.47
2017-03-14T03:32:37.138Z,91.13
2017-03-14T03:32:51.657Z,90.55
2017-03-14T03:33:06.232Z,90.06
2017-03-14T03:33:20.814Z,89.58
2017-03-14T03:33:35.415Z,89.1
2017-03-14T03:33:49.928Z,88.71
2017-03-14T03:34:04.437Z,88.43
2017-03-14T03:34:19.038Z,86.89
2017-03-14T03:34:33.617Z,86.6
2017-03-14T03:34:48.129Z,86.12
2017-03-14T03:35:02.713Z,86.31
2017-03-14T03:35:17.330Z,85.74
2017-03-14T03:35:31.856Z,85.64
2017-03-14T03:35:46.453Z,85.25
2017-03-14T03:36:01.021Z,84.48
2017-03-14T03:36:15.578Z,84.39
2017-03-14T03:36:30.168Z,84.77
2017-03-14T03:36:44.687Z,84.48
2017-03-14T03:36:59.203Z,84.67
2017-03-14T03:37:13.773Z,85.06
2017-03-14T03:37:28.424Z,84.67
2017-03-14T03:37:42.945Z,84.67
2017-03-14T03:37:57.469Z,84.97
2017-03-14T03:38:12.046Z,84.67
2017-03-14T03:38:26.632Z,84.67
2017-03-14T03:38:41.215Z,84.58
2017-03-14T03:38:55.786Z,84.39
2017-03-14T03:39:10.328Z,84.39
2017-03-14T03:39:24.887Z,84.19
2017-03-14T03:39:39.435Z,84
2017-03-14T03:39:53.979Z,84.54
2017-03-14T03:40:08.543Z,84.19
2017-03-14T03:40:23.071Z,83.81
2017-03-14T03:40:37.661Z,83.48
2017-03-14T03:40:52.235Z,83.81
2017-03-14T03:41:06.830Z,83.52
2017-03-14T03:41:21.405Z,83.81
2017-03-14T03:41:35.914Z,83.62
2017-03-14T03:41:50.436Z,82.94
2017-03-14T03:42:04.989Z,83.09
2017-03-14T03:42:19.591Z,82.85
2017-03-14T03:42:34.186Z,82.65
2017-03-14T03:42:48.788Z,82.85
2017-03-14T03:43:03.370Z,83.04
2017-03-14T03:43:17.956Z,82.65
2017-03-14T03:43:32.465Z,83
2017-03-14T03:43:47.003Z,83.19
2017-03-14T03:44:01.520Z,83.19
2017-03-14T03:44:16.075Z,83.29
2017-03-14T03:44:30.630Z,82.61
2017-03-14T03:44:45.218Z,83.09
2017-03-14T03:44:59.780Z,82.71
2017-03-14T03:45:14.570Z,82.81
2017-03-14T03:45:29.123Z,82.61
2017-03-14T03:45:43.685Z,82.81
2017-03-14T03:45:58.156Z,82.81
2017-03-14T03:46:12.736Z,82.52
2017-03-14T03:46:27.294Z,82.9
2017-03-14T03:46:41.837Z,82.61
2017-03-14T03:46:56.395Z,82.32
2017-03-14T03:47:10.942Z,82.42
2017-03-14T03:47:25.537Z,82.42
2017-03-14T03:47:40.091Z,82.61
2017-03-14T03:47:54.680Z,82.52
2017-03-14T03:48:09.184Z,81.84